Time;durP1;ratioP1;P1;durP2;ratioP2;P2;SDS_P1;SDS_P2;PMS_P1;PMS_P2;Temp;Humidity;BMP_temperature;BMP_pressure;BME280_temperature;BME280_humidity;BME280_pressure;Samples;Min_cycle;Max_cycle;Signal;HPM_P1;HPM_P2
2021/07/04 00:00:28;;;;;;;;;;;17.00;99.90;;;;;;4919151;29;19927;-74
2021/07/04 00:02:55;;;;;;;;;;;17.00;99.90;;;;;;4918703;29;20026;-74
2021/07/04 00:05:29;;;;;;;;;;;17.00;99.90;;;;;;4918851;29;19933;-74
2021/07/04 00:07:56;;;;;;;;;;;17.00;99.90;;;;;;4936390;29;19949;-74
2021/07/04 00:10:24;;;;;;;;;;;17.10;99.90;;;;;;4918751;29;19927;-74
2021/07/04 00:12:56;;;;;;;;;;;17.00;99.90;;;;;;4918444;29;20297;-74
2021/07/04 00:15:29;;;;;;;;;;;17.00;99.90;;;;;;4934962;29;19933;-74
2021/07/04 00:17:56;;;;;;;;;;;17.00;99.90;;;;;;4919052;29;19926;-74
2021/07/04 00:20:23;;;;;;;;;;;17.00;99.90;;;;;;4918937;29;19931;-74
2021/07/04 00:22:54;;;;;;;;;;;17.00;99.90;;;;;;4902600;29;20022;-74
2021/07/04 00:25:22;;;;;;;;;;;17.00;99.90;;;;;;4918682;29;20489;-74
2021/07/04 00:27:54;;;;;;;;;;;17.00;99.90;;;;;;4919274;29;19930;-74
2021/07/04 00:30:21;;;;;;;;;;;17.00;99.90;;;;;;4918509;29;20441;-74
2021/07/04 00:32:48;;;;;;;;;;;17.00;99.90;;;;;;4935088;29;19927;-74
2021/07/04 00:35:16;;;;;;;;;;;17.00;99.90;;;;;;4919093;29;20038;-74
2021/07/04 00:37:48;;;;;;;;;;;16.90;99.90;;;;;;4904251;29;19926;-75
2021/07/04 00:40:20;;;;;;;;;;;16.90;99.90;;;;;;4934851;29;19978;-74
2021/07/04 00:42:52;;;;;;;;;;;16.90;99.90;;;;;;4919196;29;20006;-74
2021/07/04 00:45:25;;;;;;;;;;;16.80;99.90;;;;;;4918870;29;20297;-74
2021/07/04 00:47:57;;;;;;;;;;;16.80;99.90;;;;;;4919887;29;19973;-74
2021/07/04 00:50:29;;;;;;;;;;;16.80;99.90;;;;;;4918794;29;19931;-74
2021/07/04 00:53:04;;;;;;;;;;;16.80;99.90;;;;;;4921441;29;20405;-76
2021/07/04 00:55:34;;;;;;;;;;;16.80;99.90;;;;;;4903582;29;19926;-74
2021/07/04 00:58:08;;;;;;;;;;;16.80;99.90;;;;;;4917040;29;19927;-74
2021/07/04 01:00:39;;;;;;;;;;;16.80;99.90;;;;;;4902369;29;20019;-73
2021/07/04 01:03:11;;;;;;;;;;;16.80;99.90;;;;;;4917501;29;19927;-74
2021/07/04 01:05:46;;;;;;;;;;;16.80;99.90;;;;;;4903569;29;20314;-74
2021/07/04 01:08:15;;;;;;;;;;;16.80;99.90;;;;;;4918314;29;19931;-74
2021/07/04 01:10:48;;;;;;;;;;;16.80;99.90;;;;;;4903550;29;19934;-74
2021/07/04 01:13:26;;;;;;;;;;;16.70;99.90;;;;;;4920003;29;19926;-74
2021/07/04 01:16:06;;;;;;;;;;;16.60;99.90;;;;;;4918347;29;19926;-74
2021/07/04 01:18:33;;;;;;;;;;;16.60;99.90;;;;;;4902806;29;20334;-74
2021/07/04 01:21:09;;;;;;;;;;;16.60;99.90;;;;;;4902752;29;19927;-74
2021/07/04 01:23:39;;;;;;;;;;;16.70;99.90;;;;;;4917739;29;20021;-74
2021/07/04 01:26:07;;;;;;;;;;;16.60;99.90;;;;;;4917349;29;19931;-74
2021/07/04 01:28:39;;;;;;;;;;;16.60;99.90;;;;;;4902665;29;19935;-74
2021/07/04 01:31:10;;;;;;;;;;;16.70;99.90;;;;;;4902028;29;20014;-74
2021/07/04 01:33:50;;;;;;;;;;;16.80;99.90;;;;;;4903604;29;20389;-74
2021/07/04 01:36:32;;;;;;;;;;;16.70;99.90;;;;;;4920297;29;19927;-74
2021/07/04 01:39:05;;;;;;;;;;;16.80;99.90;;;;;;4919177;29;20399;-74
2021/07/04 01:41:35;;;;;;;;;;;16.80;99.90;;;;;;4917193;29;19974;-73
2021/07/04 01:44:06;;;;;;;;;;;16.80;99.90;;;;;;4918009;29;20394;-74
2021/07/04 01:46:38;;;;;;;;;;;16.70;99.90;;;;;;4902974;29;20062;-74
2021/07/04 01:49:11;;;;;;;;;;;16.70;99.90;;;;;;4903228;29;19927;-74
2021/07/04 01:51:38;;;;;;;;;;;16.70;99.90;;;;;;4934050;29;19927;-74
2021/07/04 01:54:17;;;;;;;;;;;16.70;99.90;;;;;;4917691;29;19933;-74
2021/07/04 01:56:49;;;;;;;;;;;16.70;99.90;;;;;;4918697;29;19927;-74
2021/07/04 01:59:22;;;;;;;;;;;16.70;99.90;;;;;;4902993;29;20342;-74
2021/07/04 02:02:10;;;;;;;;;;;16.70;99.90;;;;;;4917089;29;20463;-73
2021/07/04 02:04:43;;;;;;;;;;;16.70;99.90;;;;;;4902657;29;19934;-74
2021/07/04 02:07:24;;;;;;;;;;;16.70;99.90;;;;;;4903714;29;19938;-73
2021/07/04 02:10:00;;;;;;;;;;;16.70;99.90;;;;;;4903133;29;19930;-74
2021/07/04 02:12:36;;;;;;;;;;;16.70;99.90;;;;;;4917074;29;20022;-74
2021/07/04 02:15:11;;;;;;;;;;;16.70;99.90;;;;;;4902095;29;19927;-74
2021/07/04 02:17:50;;;;;;;;;;;16.70;99.90;;;;;;4903719;29;19927;-74
2021/07/04 02:20:38;;;;;;;;;;;16.60;99.90;;;;;;4917621;29;19927;-74
2021/07/04 02:23:27;;;;;;;;;;;16.50;99.90;;;;;;4917222;29;19974;-74
2021/07/04 02:26:22;;;;;;;;;;;16.50;99.90;;;;;;4920886;29;19959;-74
2021/07/04 02:28:58;;;;;;;;;;;16.60;99.90;;;;;;4917505;29;20498;-74
2021/07/04 02:31:31;;;;;;;;;;;16.50;99.90;;;;;;4917181;29;19926;-74
2021/07/04 02:33:59;;;;;;;;;;;16.50;99.90;;;;;;4916139;29;19958;-74
2021/07/04 02:36:37;;;;;;;;;;;16.50;99.90;;;;;;4903232;29;19927;-74
2021/07/04 02:39:14;;;;;;;;;;;16.50;99.90;;;;;;4917478;29;20578;-73
2021/07/04 02:41:42;;;;;;;;;;;16.50;99.90;;;;;;4901692;29;19927;-74
2021/07/04 02:44:16;;;;;;;;;;;16.50;99.90;;;;;;4902844;29;19926;-74
2021/07/04 02:46:45;;;;;;;;;;;16.50;99.90;;;;;;4901509;29;20301;-74
2021/07/04 02:49:17;;;;;;;;;;;16.50;99.90;;;;;;4917253;29;20394;-74
2021/07/04 02:51:53;;;;;;;;;;;16.50;99.90;;;;;;4902303;29;20386;-74
2021/07/04 02:54:26;;;;;;;;;;;16.50;99.90;;;;;;4902275;29;19927;-74
2021/07/04 02:57:06;;;;;;;;;;;16.50;99.90;;;;;;4903168;29;19934;-73
2021/07/04 02:59:39;;;;;;;;;;;16.40;99.90;;;;;;4934072;29;19934;-74
2021/07/04 03:02:13;;;;;;;;;;;16.40;99.90;;;;;;4902825;29;19934;-74
2021/07/04 03:04:45;;;;;;;;;;;16.50;99.90;;;;;;4905768;29;19934;-74
2021/07/04 03:07:11;;;;;;;;;;;16.50;99.90;;;;;;4937792;29;20375;-74
2021/07/04 03:09:43;;;;;;;;;;;16.50;99.90;;;;;;4921589;29;19927;-74
2021/07/04 03:12:20;;;;;;;;;;;16.50;99.90;;;;;;4920441;29;19934;-74
2021/07/04 03:14:56;;;;;;;;;;;16.60;99.90;;;;;;4906326;29;19926;-74
2021/07/04 03:17:28;;;;;;;;;;;16.60;99.90;;;;;;4905638;29;19926;-74
2021/07/04 03:20:00;;;;;;;;;;;16.60;99.90;;;;;;4905515;29;19933;-74
2021/07/04 03:22:29;;;;;;;;;;;16.60;99.90;;;;;;4920073;29;19927;-74
2021/07/04 03:24:57;;;;;;;;;;;16.60;99.90;;;;;;4904666;29;19933;-74
2021/07/04 03:27:29;;;;;;;;;;;16.60;99.90;;;;;;4905378;29;19977;-74
2021/07/04 03:30:03;;;;;;;;;;;16.60;99.90;;;;;;4905588;29;19926;-74
2021/07/04 03:32:32;;;;;;;;;;;16.60;99.90;;;;;;4919727;29;20483;-74
2021/07/04 03:35:05;;;;;;;;;;;16.60;99.90;;;;;;4905352;29;19927;-74
2021/07/04 03:37:39;;;;;;;;;;;16.60;99.90;;;;;;4920384;29;20393;-74
2021/07/04 03:40:14;;;;;;;;;;;16.60;99.90;;;;;;4920173;29;19927;-73
2021/07/04 03:42:42;;;;;;;;;;;16.60;99.90;;;;;;4919903;29;20632;-74
2021/07/04 03:45:17;;;;;;;;;;;16.60;99.90;;;;;;4905425;29;19926;-74
2021/07/04 03:47:46;;;;;;;;;;;16.60;99.90;;;;;;4904905;29;19934;-74
2021/07/04 03:50:23;;;;;;;;;;;16.60;99.90;;;;;;4905726;29;19982;-74
2021/07/04 03:52:56;;;;;;;;;;;16.60;99.90;;;;;;4919563;29;19955;-74
2021/07/04 03:55:28;;;;;;;;;;;16.60;99.90;;;;;;4904818;29;19934;-74
2021/07/04 03:58:02;;;;;;;;;;;16.60;99.90;;;;;;4919900;29;19933;-74
2021/07/04 04:00:36;;;;;;;;;;;16.60;99.90;;;;;;4919764;29;20021;-74
2021/07/04 04:03:13;;;;;;;;;;;16.60;99.90;;;;;;4905098;29;19926;-74
2021/07/04 04:05:50;;;;;;;;;;;16.60;99.90;;;;;;4905067;29;19982;-74
2021/07/04 04:08:18;;;;;;;;;;;16.60;99.90;;;;;;4919758;29;19927;-74
2021/07/04 04:10:50;;;;;;;;;;;16.60;99.90;;;;;;4919618;29;19938;-74
2021/07/04 04:13:19;;;;;;;;;;;16.60;99.90;;;;;;4918832;29;20054;-74
2021/07/04 04:15:51;;;;;;;;;;;16.60;99.90;;;;;;4904632;29;20449;-74
2021/07/04 04:18:27;;;;;;;;;;;16.60;99.90;;;;;;4904851;29;19926;-73
2021/07/04 04:20:56;;;;;;;;;;;16.60;99.90;;;;;;4919329;29;19927;-74
2021/07/04 04:23:28;;;;;;;;;;;16.60;99.90;;;;;;4904475;29;20037;-74
2021/07/04 04:26:03;;;;;;;;;;;16.60;99.90;;;;;;4904474;29;19926;-74
2021/07/04 04:28:36;;;;;;;;;;;16.60;99.90;;;;;;4904699;29;19933;-74
2021/07/04 04:31:03;;;;;;;;;;;16.60;99.90;;;;;;4919065;29;19934;-74
2021/07/04 04:33:35;;;;;;;;;;;16.60;99.90;;;;;;4919350;29;20024;-74
2021/07/04 04:36:02;;;;;;;;;;;16.60;99.90;;;;;;4935777;29;19927;-74
2021/07/04 04:38:28;;;;;;;;;;;16.60;99.90;;;;;;4903712;29;20373;-74
2021/07/04 04:40:55;;;;;;;;;;;16.60;99.90;;;;;;4903157;29;19931;-73
2021/07/04 04:43:23;;;;;;;;;;;16.60;99.90;;;;;;4918916;29;19927;-74
2021/07/04 04:45:54;;;;;;;;;;;16.70;99.90;;;;;;4904029;29;20386;-74
2021/07/04 04:48:26;;;;;;;;;;;16.70;99.90;;;;;;4903960;29;19926;-74
2021/07/04 04:50:58;;;;;;;;;;;16.70;99.90;;;;;;4935771;29;19933;-74
2021/07/04 04:53:29;;;;;;;;;;;16.70;99.90;;;;;;4918909;29;19926;-74
2021/07/04 04:56:01;;;;;;;;;;;16.70;99.90;;;;;;4918878;29;19969;-74
2021/07/04 04:58:33;;;;;;;;;;;16.70;99.90;;;;;;4903694;29;19926;-74
2021/07/04 05:01:00;;;;;;;;;;;16.70;99.90;;;;;;4918507;29;20457;-74
2021/07/04 05:03:31;;;;;;;;;;;16.80;99.90;;;;;;4903620;29;19933;-74
2021/07/04 05:06:03;;;;;;;;;;;16.80;99.90;;;;;;4918506;29;19966;-74
2021/07/04 05:08:30;;;;;;;;;;;16.90;99.90;;;;;;4903045;29;19991;-74
2021/07/04 05:11:02;;;;;;;;;;;17.00;99.90;;;;;;4914729;29;20441;-74
2021/07/04 05:13:29;;;;;;;;;;;17.00;99.90;;;;;;4935781;29;19926;-74
2021/07/04 05:15:56;;;;;;;;;;;17.10;99.90;;;;;;4934427;29;20017;-74
2021/07/04 05:18:27;;;;;;;;;;;17.10;99.90;;;;;;4930791;29;20035;-74
2021/07/04 05:20:54;;;;;;;;;;;17.10;99.90;;;;;;4920956;29;19942;-74
2021/07/04 05:23:27;;;;;;;;;;;17.20;99.90;;;;;;4933310;29;19976;-74
2021/07/04 05:25:56;;;;;;;;;;;17.20;99.90;;;;;;4910453;29;19927;-74
2021/07/04 05:28:24;;;;;;;;;;;17.20;99.90;;;;;;4924495;29;19994;-75
2021/07/04 05:30:52;;;;;;;;;;;17.20;99.90;;;;;;4912797;29;19926;-74
2021/07/04 05:33:24;;;;;;;;;;;17.10;99.90;;;;;;4911590;29;19977;-75
2021/07/04 05:35:51;;;;;;;;;;;17.10;99.90;;;;;;4944976;29;19979;-75
2021/07/04 05:38:30;;;;;;;;;;;17.20;99.90;;;;;;4912641;29;19933;-75
2021/07/04 05:40:57;;;;;;;;;;;17.20;99.90;;;;;;4911086;29;20046;-74
2021/07/04 05:43:29;;;;;;;;;;;17.20;99.90;;;;;;4938790;29;20305;-79
2021/07/04 05:45:57;;;;;;;;;;;17.20;99.90;;;;;;4917805;29;20284;-74
2021/07/04 05:48:29;;;;;;;;;;;17.20;99.90;;;;;;4917641;29;19926;-75
2021/07/04 05:50:56;;;;;;;;;;;17.20;99.90;;;;;;4923294;29;20454;-74
2021/07/04 05:53:23;;;;;;;;;;;17.20;99.90;;;;;;4919783;29;20020;-74
2021/07/04 05:55:55;;;;;;;;;;;17.20;99.90;;;;;;4918416;29;20325;-74
2021/07/04 05:58:27;;;;;;;;;;;17.30;99.90;;;;;;4928423;29;19926;-73
2021/07/04 06:00:55;;;;;;;;;;;17.30;99.90;;;;;;4935532;29;20378;-73
2021/07/04 06:03:21;;;;;;;;;;;17.30;99.90;;;;;;4935628;29;19957;-76
2021/07/04 06:05:53;;;;;;;;;;;17.30;99.90;;;;;;4913088;29;19927;-75
2021/07/04 06:08:21;;;;;;;;;;;17.30;99.90;;;;;;4902019;29;19978;-74
2021/07/04 06:10:51;;;;;;;;;;;17.30;99.90;;;;;;4933220;29;19982;-75
2021/07/04 06:13:22;;;;;;;;;;;17.30;99.90;;;;;;4934105;29;20021;-74
2021/07/04 06:15:54;;;;;;;;;;;17.40;99.90;;;;;;4920408;29;20514;-75
2021/07/04 06:18:21;;;;;;;;;;;17.40;99.90;;;;;;4920265;29;20565;-74
2021/07/04 06:20:53;;;;;;;;;;;17.40;99.90;;;;;;4903156;29;19933;-74
2021/07/04 06:23:24;;;;;;;;;;;17.40;99.90;;;;;;4936871;28;19926;-74
2021/07/04 06:25:51;;;;;;;;;;;17.50;99.90;;;;;;4955156;28;19926;-74
2021/07/04 06:28:20;;;;;;;;;;;17.60;99.90;;;;;;4938660;28;20356;-74
2021/07/04 06:30:52;;;;;;;;;;;17.60;99.90;;;;;;4971868;28;20410;-74
2021/07/04 06:33:18;;;;;;;;;;;17.60;99.90;;;;;;4970760;28;20021;-74
2021/07/04 06:35:45;;;;;;;;;;;17.70;99.90;;;;;;4955669;28;19973;-74
2021/07/04 06:38:12;;;;;;;;;;;17.80;99.90;;;;;;4976673;28;19926;-74
2021/07/04 06:40:38;;;;;;;;;;;17.80;99.90;;;;;;4959187;28;19930;-74
2021/07/04 06:43:05;;;;;;;;;;;17.80;99.90;;;;;;4942949;28;20397;-74
2021/07/04 06:45:37;;;;;;;;;;;17.90;99.90;;;;;;4944058;28;19927;-74
2021/07/04 06:48:08;;;;;;;;;;;17.90;99.90;;;;;;4944036;28;19926;-74
2021/07/04 06:50:40;;;;;;;;;;;18.00;99.90;;;;;;4943833;28;19930;-74
2021/07/04 06:53:13;;;;;;;;;;;18.00;99.90;;;;;;4958681;28;19934;-74
2021/07/04 06:55:40;;;;;;;;;;;18.10;99.90;;;;;;4943324;28;20025;-74
2021/07/04 06:58:06;;;;;;;;;;;18.10;99.90;;;;;;4943292;28;20020;-74
2021/07/04 07:00:38;;;;;;;;;;;18.10;99.90;;;;;;4943269;28;19938;-74
2021/07/04 07:03:05;;;;;;;;;;;18.20;99.90;;;;;;4957839;28;20304;-74
2021/07/04 07:05:36;;;;;;;;;;;18.20;99.90;;;;;;4943226;28;19936;-74
2021/07/04 07:08:03;;;;;;;;;;;18.20;99.90;;;;;;4958367;28;20467;-74
2021/07/04 07:10:31;;;;;;;;;;;18.30;99.90;;;;;;4975611;28;19926;-74
2021/07/04 07:12:59;;;;;;;;;;;18.30;99.90;;;;;;4941664;28;20381;-74
2021/07/04 07:15:30;;;;;;;;;;;18.30;99.90;;;;;;4943122;28;19926;-74
2021/07/04 07:17:58;;;;;;;;;;;18.40;99.90;;;;;;4957852;28;20452;-74
2021/07/04 07:20:24;;;;;;;;;;;18.30;99.90;;;;;;4958283;28;19930;-74
2021/07/04 07:22:52;;;;;;;;;;;18.30;99.90;;;;;;4974686;28;19970;-74
2021/07/04 07:25:35;;;;;;;;;;;18.30;99.90;;;;;;4943994;28;20021;-74
2021/07/04 07:28:03;;;;;;;;;;;18.30;99.90;;;;;;4957785;28;19930;-74
2021/07/04 07:30:29;;;;;;;;;;;18.40;99.90;;;;;;4958150;28;19934;-74
2021/07/04 07:32:56;;;;;;;;;;;18.50;99.90;;;;;;4933981;29;20428;-74
2021/07/04 07:35:23;;;;;;;;;;;18.50;99.90;;;;;;4907328;29;19974;-74
2021/07/04 07:37:59;;;;;;;;;;;18.50;99.90;;;;;;4905905;29;20401;-74
2021/07/04 07:40:26;;;;;;;;;;;18.60;99.90;;;;;;4919466;29;19933;-74
2021/07/04 07:42:53;;;;;;;;;;;18.60;99.90;;;;;;4904051;29;19942;-74
2021/07/04 07:45:20;;;;;;;;;;;18.70;99.90;;;;;;4903902;29;20446;-74
2021/07/04 07:47:51;;;;;;;;;;;18.70;99.90;;;;;;4903481;29;19927;-74
2021/07/04 07:50:25;;;;;;;;;;;18.80;99.90;;;;;;4904540;29;20390;-74
2021/07/04 07:52:51;;;;;;;;;;;18.80;99.90;;;;;;4935664;29;19962;-74
2021/07/04 07:55:18;;;;;;;;;;;18.80;99.90;;;;;;4936168;29;20457;-74
2021/07/04 07:57:45;;;;;;;;;;;18.80;99.90;;;;;;4903696;29;19993;-74
2021/07/04 08:00:13;;;;;;;;;;;18.70;99.90;;;;;;4903523;29;20059;-74
2021/07/04 08:02:44;;;;;;;;;;;18.70;99.90;;;;;;4919991;29;19942;-74
2021/07/04 08:05:19;;;;;;;;;;;18.80;99.90;;;;;;4919692;29;19970;-74
2021/07/04 08:07:52;;;;;;;;;;;18.80;99.90;;;;;;4904980;29;19949;-74
2021/07/04 08:10:31;;;;;;;;;;;18.80;99.90;;;;;;4919924;29;20008;-74
2021/07/04 08:13:03;;;;;;;;;;;18.90;99.90;;;;;;4904212;29;19927;-73
2021/07/04 08:15:37;;;;;;;;;;;19.10;99.90;;;;;;4904758;29;20417;-74
2021/07/04 08:18:04;;;;;;;;;;;19.20;99.90;;;;;;4903650;29;20446;-74
2021/07/04 08:20:36;;;;;;;;;;;19.40;99.90;;;;;;4920170;29;20442;-74
2021/07/04 08:23:03;;;;;;;;;;;19.50;99.90;;;;;;4936673;29;20017;-74
2021/07/04 08:25:35;;;;;;;;;;;19.70;99.90;;;;;;4936250;29;19933;-74
2021/07/04 08:28:08;;;;;;;;;;;19.90;99.90;;;;;;4920051;29;20107;-74
2021/07/04 08:30:35;;;;;;;;;;;20.10;99.90;;;;;;4919254;29;19927;-73
2021/07/04 08:33:07;;;;;;;;;;;20.20;99.90;;;;;;4919673;29;19938;-74
2021/07/04 08:35:38;;;;;;;;;;;20.30;99.90;;;;;;4918681;29;19926;-74
2021/07/04 08:38:11;;;;;;;;;;;20.50;99.90;;;;;;4919477;29;19934;-73
2021/07/04 08:40:37;;;;;;;;;;;20.40;99.90;;;;;;4935553;29;20496;-73
2021/07/04 08:43:09;;;;;;;;;;;20.30;99.90;;;;;;4917630;29;19937;-74
2021/07/04 08:45:37;;;;;;;;;;;20.20;99.90;;;;;;4918494;29;19958;-74
2021/07/04 08:48:08;;;;;;;;;;;20.10;99.90;;;;;;4935149;29;20021;-74
2021/07/04 08:50:35;;;;;;;;;;;20.00;99.90;;;;;;4918314;29;20401;-74
2021/07/04 08:53:02;;;;;;;;;;;19.90;99.90;;;;;;4917619;29;20026;-74
2021/07/04 08:55:34;;;;;;;;;;;19.80;99.90;;;;;;4934925;29;19927;-74
2021/07/04 08:58:00;;;;;;;;;;;19.80;99.90;;;;;;4917793;29;19931;-74
2021/07/04 09:00:32;;;;;;;;;;;19.70;99.90;;;;;;4933876;29;19927;-73
2021/07/04 09:03:30;;;;;;;;;;;19.60;99.90;;;;;;4917370;29;19934;-74
2021/07/04 09:06:02;;;;;;;;;;;19.60;99.90;;;;;;4901944;29;19941;-74
2021/07/04 09:08:33;;;;;;;;;;;19.70;99.90;;;;;;4918643;29;19927;-74
2021/07/04 09:11:11;;;;;;;;;;;19.80;99.90;;;;;;4918032;29;19963;-74
2021/07/04 09:13:44;;;;;;;;;;;19.90;99.90;;;;;;4918194;29;19969;-74
2021/07/04 09:16:13;;;;;;;;;;;20.00;99.90;;;;;;4935829;29;19966;-74
2021/07/04 09:18:44;;;;;;;;;;;20.00;99.90;;;;;;4917559;29;19927;-74
2021/07/04 09:21:17;;;;;;;;;;;20.10;99.90;;;;;;4916891;29;19933;-74
2021/07/04 09:23:44;;;;;;;;;;;20.10;99.90;;;;;;4917678;29;20017;-74
2021/07/04 09:26:34;;;;;;;;;;;20.10;99.90;;;;;;4917960;29;19927;-74
2021/07/04 09:29:07;;;;;;;;;;;20.20;99.90;;;;;;4934484;29;19974;-74
2021/07/04 09:31:40;;;;;;;;;;;20.10;99.90;;;;;;4919211;29;19926;-74
2021/07/04 09:34:08;;;;;;;;;;;20.10;99.90;;;;;;4937000;29;19973;-74
2021/07/04 09:36:40;;;;;;;;;;;20.10;99.90;;;;;;4937863;29;19933;-73
2021/07/04 09:39:16;;;;;;;;;;;20.10;99.90;;;;;;4936626;29;20497;-74
2021/07/04 09:42:08;;;;;;;;;;;20.10;99.90;;;;;;4921400;29;19977;-74
2021/07/04 09:44:39;;;;;;;;;;;20.20;99.90;;;;;;4921140;29;19927;-74
2021/07/04 09:47:16;;;;;;;;;;;20.10;99.90;;;;;;4921396;29;19926;-74
2021/07/04 09:49:47;;;;;;;;;;;20.10;99.90;;;;;;4949567;28;19927;-74
2021/07/04 09:52:20;;;;;;;;;;;20.00;99.90;;;;;;4935393;29;19927;-74
2021/07/04 09:54:53;;;;;;;;;;;20.00;99.90;;;;;;4935870;29;20413;-74
2021/07/04 09:57:25;;;;;;;;;;;20.10;99.90;;;;;;4917432;29;19935;-74
2021/07/04 10:00:11;;;;;;;;;;;20.20;99.90;;;;;;4916063;29;20018;-74
2021/07/04 10:03:02;;;;;;;;;;;20.20;99.90;;;;;;4918680;28;20414;-74
2021/07/04 10:05:29;;;;;;;;;;;20.30;99.90;;;;;;4920409;29;19926;-74
2021/07/04 10:08:16;;;;;;;;;;;20.40;99.90;;;;;;4926466;29;19927;-74
2021/07/04 10:10:43;;;;;;;;;;;20.60;99.90;;;;;;4932322;29;19937;-74
2021/07/04 10:13:10;;;;;;;;;;;20.90;99.90;;;;;;4941043;28;19926;-74
2021/07/04 10:15:38;;;;;;;;;;;21.10;99.90;;;;;;4926702;29;20018;-74
2021/07/04 10:18:06;;;;;;;;;;;21.30;99.90;;;;;;4913149;29;20431;-74
2021/07/04 10:20:33;;;;;;;;;;;21.40;99.90;;;;;;4934439;29;20457;-74
2021/07/04 10:23:00;;;;;;;;;;;21.40;99.90;;;;;;4915208;29;19982;-74
2021/07/04 10:25:32;;;;;;;;;;;21.30;99.90;;;;;;4942208;29;19931;-74
2021/07/04 10:28:00;;;;;;;;;;;21.30;99.90;;;;;;4923515;29;20376;-74
2021/07/04 10:30:32;;;;;;;;;;;21.20;99.90;;;;;;4949244;29;19933;-74
2021/07/04 10:33:05;;;;;;;;;;;21.30;99.90;;;;;;4937120;28;20032;-74
2021/07/04 10:35:48;;;;;;;;;;;21.40;99.90;;;;;;4925554;29;19927;-74
2021/07/04 10:38:15;;;;;;;;;;;21.50;99.90;;;;;;4932445;29;19933;-74
2021/07/04 10:40:47;;;;;;;;;;;21.60;99.90;;;;;;4931875;29;19978;-73
2021/07/04 10:43:37;;;;;;;;;;;21.70;99.90;;;;;;4907487;29;19935;-73
2021/07/04 10:46:04;;;;;;;;;;;21.70;99.90;;;;;;4943365;29;19966;-74
2021/07/04 10:48:50;;;;;;;;;;;21.90;99.90;;;;;;4929696;28;19934;-74
2021/07/04 10:51:27;;;;;;;;;;;22.00;99.90;;;;;;4943713;28;19926;-73
2021/07/04 10:54:01;;;;;;;;;;;22.10;99.90;;;;;;4915971;29;19911;-74
2021/07/04 10:56:35;;;;;;;;;;;22.00;99.90;;;;;;4928883;29;19930;-74
2021/07/04 10:59:15;;;;;;;;;;;22.10;99.90;;;;;;4928497;29;20432;-74
2021/07/04 11:01:48;;;;;;;;;;;22.20;99.90;;;;;;4936528;29;20421;-73
2021/07/04 11:04:28;;;;;;;;;;;22.30;99.90;;;;;;4924976;29;19927;-74
2021/07/04 11:06:57;;;;;;;;;;;22.40;99.90;;;;;;4924516;29;19931;-73
2021/07/04 11:09:24;;;;;;;;;;;22.30;99.90;;;;;;4924470;29;19935;-74
2021/07/04 11:12:14;;;;;;;;;;;22.30;99.90;;;;;;4917209;29;19934;-73
2021/07/04 11:15:01;;;;;;;;;;;22.20;99.90;;;;;;4933322;29;19927;-74
2021/07/04 11:17:48;;;;;;;;;;;22.30;99.90;;;;;;4925154;29;19969;-74
2021/07/04 11:20:18;;;;;;;;;;;22.40;99.90;;;;;;4930507;29;19930;-74
2021/07/04 11:22:53;;;;;;;;;;;22.50;99.90;;;;;;4930345;28;19926;-73
2021/07/04 11:25:20;;;;;;;;;;;22.40;99.90;;;;;;4938679;29;20296;-74
2021/07/04 11:28:12;;;;;;;;;;;22.30;99.90;;;;;;4938816;29;19930;-74
2021/07/04 11:30:39;;;;;;;;;;;22.30;99.90;;;;;;4922986;29;20017;-73
2021/07/04 11:33:26;;;;;;;;;;;22.40;99.90;;;;;;4932242;29;19934;-73
2021/07/04 11:35:57;;;;;;;;;;;22.40;99.90;;;;;;4932367;29;20401;-72
2021/07/04 11:38:31;;;;;;;;;;;22.70;99.90;;;;;;4921582;29;19934;-74
2021/07/04 11:40:58;;;;;;;;;;;22.80;99.90;;;;;;4922573;29;19930;-74
2021/07/04 11:43:26;;;;;;;;;;;22.80;99.90;;;;;;4938486;29;19927;-74
2021/07/04 11:45:59;;;;;;;;;;;22.70;99.90;;;;;;4938911;29;20020;-74
2021/07/04 11:48:43;;;;;;;;;;;22.70;99.90;;;;;;4920210;29;20308;-74
2021/07/04 11:51:21;;;;;;;;;;;22.60;99.90;;;;;;4922520;29;20300;-72
2021/07/04 11:53:48;;;;;;;;;;;22.70;99.90;;;;;;4938709;29;19962;-74
2021/07/04 11:56:20;;;;;;;;;;;22.70;99.90;;;;;;4923327;29;19926;-74
2021/07/04 11:58:47;;;;;;;;;;;22.90;99.90;;;;;;4922353;29;20297;-73
2021/07/04 12:01:18;;;;;;;;;;;23.10;99.90;;;;;;4938098;29;19937;-74
2021/07/04 12:03:51;;;;;;;;;;;23.30;99.90;;;;;;4938169;29;20020;-74
2021/07/04 12:06:23;;;;;;;;;;;23.40;99.90;;;;;;4955689;29;19954;-74
2021/07/04 12:08:55;;;;;;;;;;;23.70;99.90;;;;;;4919739;29;19962;-72
2021/07/04 12:11:45;;;;;;;;;;;23.90;99.90;;;;;;4937141;29;19927;-74
2021/07/04 12:14:23;;;;;;;;;;;23.90;99.90;;;;;;4928106;29;19926;-74
2021/07/04 12:16:57;;;;;;;;;;;23.90;99.90;;;;;;4926210;29;20021;-74
2021/07/04 12:19:32;;;;;;;;;;;23.90;99.90;;;;;;4949802;29;19927;-74
2021/07/04 12:22:04;;;;;;;;;;;23.90;99.90;;;;;;4942342;29;19933;-74
2021/07/04 12:24:35;;;;;;;;;;;24.00;99.90;;;;;;4919083;29;19989;-74
2021/07/04 12:27:07;;;;;;;;;;;24.00;99.90;;;;;;4904915;29;19934;-74
2021/07/04 12:29:52;;;;;;;;;;;23.90;99.90;;;;;;4914395;29;19926;-73
2021/07/04 12:32:24;;;;;;;;;;;23.70;99.90;;;;;;4916818;29;19985;-73
2021/07/04 12:34:56;;;;;;;;;;;23.70;99.90;;;;;;4915975;29;19933;-74
2021/07/04 12:37:28;;;;;;;;;;;23.80;99.90;;;;;;4916667;29;20034;-73
2021/07/04 12:40:11;;;;;;;;;;;23.70;99.90;;;;;;4903982;29;19931;-73
2021/07/04 12:42:38;;;;;;;;;;;23.60;99.90;;;;;;4934933;29;19981;-74
2021/07/04 12:45:09;;;;;;;;;;;23.40;99.90;;;;;;4918959;29;19927;-74
2021/07/04 12:47:37;;;;;;;;;;;23.40;99.90;;;;;;4902287;29;20302;-73
2021/07/04 12:50:08;;;;;;;;;;;23.40;99.90;;;;;;4917623;29;19927;-74
2021/07/04 12:52:53;;;;;;;;;;;23.50;99.90;;;;;;4901269;29;20309;-74
2021/07/04 12:55:36;;;;;;;;;;;23.60;99.90;;;;;;4917795;29;20471;-75
2021/07/04 12:58:21;;;;;;;;;;;23.60;99.90;;;;;;4935107;29;20405;-73
2021/07/04 13:01:09;;;;;;;;;;;23.60;99.90;;;;;;4935044;29;19927;-73
2021/07/04 13:03:53;;;;;;;;;;;23.60;99.90;;;;;;4918770;29;20390;-73
2021/07/04 13:06:31;;;;;;;;;;;23.60;99.90;;;;;;4903760;29;19931;-73
2021/07/04 13:09:06;;;;;;;;;;;23.60;99.90;;;;;;4919898;29;19933;-74
2021/07/04 13:11:38;;;;;;;;;;;23.60;99.90;;;;;;4919578;29;20009;-73
2021/07/04 13:14:09;;;;;;;;;;;23.40;99.90;;;;;;4918423;29;19935;-73
2021/07/04 13:16:51;;;;;;;;;;;23.40;99.90;;;;;;4936028;29;20289;-73
2021/07/04 13:19:27;;;;;;;;;;;23.50;99.90;;;;;;4918623;29;20305;-73
2021/07/04 13:21:59;;;;;;;;;;;23.60;99.90;;;;;;4919063;29;19937;-73
2021/07/04 13:24:29;;;;;;;;;;;23.60;99.90;;;;;;4902518;29;20362;-73
2021/07/04 13:27:15;;;;;;;;;;;23.70;99.90;;;;;;4918420;29;19926;-73
2021/07/04 13:29:48;;;;;;;;;;;23.80;99.90;;;;;;4919519;29;20293;-73
2021/07/04 13:32:26;;;;;;;;;;;23.80;99.90;;;;;;4903286;29;19927;-73
2021/07/04 13:34:58;;;;;;;;;;;23.80;99.90;;;;;;4903295;29;19999;-73
2021/07/04 13:37:32;;;;;;;;;;;23.70;99.90;;;;;;4903346;29;19926;-73
2021/07/04 13:40:11;;;;;;;;;;;23.60;99.90;;;;;;4918223;29;19926;-73
2021/07/04 13:42:44;;;;;;;;;;;23.50;99.90;;;;;;4918561;29;19933;-73
2021/07/04 13:45:28;;;;;;;;;;;23.50;99.90;;;;;;4918065;29;19927;-73
2021/07/04 13:48:06;;;;;;;;;;;23.40;99.90;;;;;;4902923;29;19930;-73
2021/07/04 13:50:32;;;;;;;;;;;23.30;99.90;;;;;;4918193;29;20389;-73
2021/07/04 13:53:06;;;;;;;;;;;23.20;99.90;;;;;;4902582;29;19934;-73
2021/07/04 13:55:39;;;;;;;;;;;23.20;99.90;;;;;;4909457;29;19934;-73
2021/07/04 13:58:10;;;;;;;;;;;23.10;99.90;;;;;;4937015;29;19949;-73
2021/07/04 14:00:37;;;;;;;;;;;22.90;99.90;;;;;;4921198;29;20408;-73
2021/07/04 14:03:09;;;;;;;;;;;22.90;99.90;;;;;;4921372;29;19926;-73
2021/07/04 14:05:41;;;;;;;;;;;22.90;99.90;;;;;;4954106;29;19933;-73
2021/07/04 14:08:12;;;;;;;;;;;22.90;99.90;;;;;;4937428;29;20279;-73
2021/07/04 14:10:45;;;;;;;;;;;22.90;99.90;;;;;;4936752;29;19926;-73
2021/07/04 14:13:16;;;;;;;;;;;22.90;99.90;;;;;;4921393;29;19926;-73
2021/07/04 14:15:48;;;;;;;;;;;22.80;99.90;;;;;;4936946;29;19927;-73
2021/07/04 14:18:14;;;;;;;;;;;22.80;99.90;;;;;;4921130;29;19977;-73
2021/07/04 14:20:46;;;;;;;;;;;22.70;99.90;;;;;;4953894;29;20015;-73
2021/07/04 14:23:13;;;;;;;;;;;22.70;99.90;;;;;;4936117;29;20025;-73
2021/07/04 14:25:44;;;;;;;;;;;22.60;99.90;;;;;;4937580;29;19948;-73
2021/07/04 14:28:12;;;;;;;;;;;22.50;99.90;;;;;;4936454;29;20038;-73
2021/07/04 14:30:44;;;;;;;;;;;22.60;99.90;;;;;;4937481;29;20012;-73
2021/07/04 14:33:10;;;;;;;;;;;22.60;99.90;;;;;;4936115;29;19926;-73
2021/07/04 14:35:42;;;;;;;;;;;22.70;99.90;;;;;;4937623;29;19973;-73
2021/07/04 14:38:15;;;;;;;;;;;22.80;99.90;;;;;;4953507;29;20024;-73
2021/07/04 14:40:42;;;;;;;;;;;22.70;99.90;;;;;;4936311;29;19933;-73
2021/07/04 14:43:13;;;;;;;;;;;22.70;99.90;;;;;;4953113;29;19933;-73
2021/07/04 14:45:46;;;;;;;;;;;22.70;99.90;;;;;;4936486;29;19932;-73